createdAt,value
2019-03-25T00:01:59.536Z,22.27
2019-03-25T00:05:02.854Z,25.23
2019-03-25T00:08:06.191Z,25.35
2019-03-25T00:11:09.707Z,24.72
2019-03-25T00:14:13.007Z,23.03
2019-03-25T00:17:16.320Z,23.02
2019-03-25T00:20:19.676Z,21.52
2019-03-25T00:23:22.999Z,21.43
2019-03-25T00:26:26.386Z,22.13
2019-03-25T00:29:29.757Z,18.35
2019-03-25T00:32:33.079Z,20.53
2019-03-25T00:35:36.390Z,18.90
2019-03-25T00:38:39.771Z,20.53
2019-03-25T00:41:43.078Z,24.53
2019-03-25T00:44:46.370Z,22.30
2019-03-25T00:47:52.366Z,19.10
2019-03-25T00:50:55.706Z,21.23
2019-03-25T00:53:59.015Z,22.73
2019-03-25T00:57:02.338Z,20.52
2019-03-25T01:00:07.501Z,20.03
2019-03-25T01:03:10.786Z,20.60
2019-03-25T01:06:14.081Z,16.57
2019-03-25T01:09:17.418Z,24.07
2019-03-25T01:12:20.722Z,23.05
2019-03-25T01:15:24.072Z,19.73
2019-03-25T01:18:27.411Z,24.30
2019-03-25T01:21:30.712Z,23.43
2019-03-25T01:24:34.059Z,20.35
2019-03-25T01:27:37.375Z,27.13
2019-03-25T01:30:40.714Z,29.85
2019-03-25T01:33:44.015Z,24.63
2019-03-25T01:36:47.346Z,33.42
2019-03-25T01:39:50.678Z,27.13
2019-03-25T01:42:53.989Z,30.77
2019-03-25T01:45:57.390Z,38.92
2019-03-25T01:49:00.704Z,32.30
2019-03-25T01:52:04.034Z,34.98
2019-03-25T01:55:13.425Z,26.95
2019-03-25T01:58:12.421Z,29.07
2019-03-25T02:01:15.738Z,31.40
2019-03-25T02:04:19.057Z,34.73
2019-03-25T02:07:22.373Z,30.85
2019-03-25T02:10:25.707Z,33.55
2019-03-25T02:13:29.013Z,29.23
2019-03-25T02:16:32.361Z,34.78
2019-03-25T02:19:35.693Z,33.05
2019-03-25T02:22:39.135Z,30.50
2019-03-25T02:25:42.627Z,29.77
2019-03-25T02:28:45.936Z,30.00
2019-03-25T02:31:52.343Z,25.90
2019-03-25T02:34:55.664Z,29.17
2019-03-25T02:37:59.009Z,30.97
2019-03-25T02:41:02.310Z,26.77
2019-03-25T02:44:05.616Z,29.70
2019-03-25T02:47:08.987Z,26.00
2019-03-25T02:50:12.560Z,24.67
2019-03-25T02:53:15.888Z,25.07
2019-03-25T02:56:19.242Z,24.80
2019-03-25T02:59:22.572Z,27.60
2019-03-25T03:02:25.965Z,26.67
2019-03-25T03:05:29.246Z,26.90
2019-03-25T03:08:32.557Z,26.90
2019-03-25T03:11:35.913Z,25.50
2019-03-25T03:14:39.178Z,27.43
2019-03-25T03:17:42.456Z,18.53
2019-03-25T03:20:45.761Z,21.73
2019-03-25T03:23:49.058Z,21.73
2019-03-25T03:26:52.388Z,20.90
2019-03-25T03:29:55.680Z,23.33
2019-03-25T03:32:58.967Z,19.07
2019-03-25T03:36:02.277Z,25.40
2019-03-25T03:39:06.039Z,25.10
2019-03-25T03:42:09.312Z,25.43
2019-03-25T03:45:12.714Z,21.07
2019-03-25T03:48:15.978Z,25.37
2019-03-25T03:51:19.290Z,22.93
2019-03-25T03:54:22.579Z,20.73
2019-03-25T03:57:25.898Z,18.60
2019-03-25T04:00:30.890Z,26.30
2019-03-25T04:03:34.175Z,20.80
2019-03-25T04:06:37.477Z,21.87
2019-03-25T04:09:40.772Z,21.13
2019-03-25T04:12:44.071Z,22.33
2019-03-25T04:15:47.542Z,21.40
2019-03-25T04:18:50.827Z,21.67
2019-03-25T04:21:54.142Z,20.87
2019-03-25T04:24:57.423Z,22.37
2019-03-25T04:28:00.765Z,20.70
2019-03-25T04:31:04.055Z,19.47
2019-03-25T04:34:07.348Z,21.00
2019-03-25T04:37:10.660Z,24.67
2019-03-25T04:40:13.936Z,17.03
2019-03-25T04:43:17.237Z,21.13
2019-03-25T04:46:20.546Z,20.53
2019-03-25T04:49:23.828Z,19.13
2019-03-25T04:52:27.119Z,17.93
2019-03-25T04:55:30.410Z,15.40
2019-03-25T04:58:33.719Z,15.20
2019-03-25T05:01:37.010Z,14.60
2019-03-25T05:04:40.298Z,15.10
2019-03-25T05:07:43.598Z,19.03
2019-03-25T05:10:46.886Z,17.77
2019-03-25T05:13:50.223Z,12.10
2019-03-25T05:16:53.526Z,14.30
2019-03-25T05:19:56.816Z,15.07
2019-03-25T05:23:00.202Z,13.63
2019-03-25T05:26:03.512Z,15.07
2019-03-25T05:29:07.339Z,20.53
2019-03-25T05:32:10.640Z,19.47
2019-03-25T05:35:13.937Z,14.50
2019-03-25T05:38:17.239Z,13.70
2019-03-25T05:41:20.545Z,15.13
2019-03-25T05:44:23.857Z,14.60
2019-03-25T05:47:27.247Z,20.33
2019-03-25T05:50:30.529Z,15.53
2019-03-25T05:53:33.830Z,16.00
2019-03-25T05:56:37.124Z,13.50
2019-03-25T05:59:40.495Z,17.47
2019-03-25T06:02:43.852Z,17.17
2019-03-25T06:05:47.080Z,12.60
2019-03-25T06:08:50.393Z,15.70
2019-03-25T06:11:53.713Z,16.23
2019-03-25T06:14:57.013Z,21.73
2019-03-25T06:18:00.325Z,13.13
2019-03-25T06:21:03.610Z,15.10
2019-03-25T06:24:08.653Z,20.43
2019-03-25T06:27:14.346Z,13.40
2019-03-25T06:30:17.194Z,15.60
2019-03-25T06:33:20.491Z,14.83
2019-03-25T06:36:23.782Z,18.47
2019-03-25T06:39:27.075Z,13.30
2019-03-25T06:42:30.366Z,11.83
2019-03-25T06:45:33.674Z,14.37
2019-03-25T06:48:36.963Z,12.17
2019-03-25T06:51:40.254Z,13.77
2019-03-25T06:54:43.559Z,21.43
2019-03-25T06:57:46.844Z,15.50
2019-03-25T07:00:50.160Z,19.70
2019-03-25T07:03:53.464Z,14.00
2019-03-25T07:06:56.750Z,16.97
2019-03-25T07:10:00.044Z,13.80
2019-03-25T07:13:03.333Z,19.30
2019-03-25T07:16:06.627Z,15.80
2019-03-25T07:19:09.937Z,16.83
2019-03-25T07:22:13.213Z,14.70
2019-03-25T07:25:16.513Z,15.07
2019-03-25T07:28:19.802Z,14.50
2019-03-25T07:31:23.399Z,16.27
2019-03-25T07:34:26.691Z,22.33
2019-03-25T07:37:30.379Z,15.93
2019-03-25T07:40:33.675Z,13.90
2019-03-25T07:43:36.959Z,19.80
2019-03-25T07:46:40.266Z,18.20
2019-03-25T07:49:43.831Z,18.67
2019-03-25T07:52:47.119Z,20.47
2019-03-25T07:55:50.437Z,14.70
2019-03-25T07:58:53.703Z,20.10
2019-03-25T08:01:57.026Z,17.67
2019-03-25T08:05:00.428Z,15.47
2019-03-25T08:08:03.660Z,11.90
2019-03-25T08:11:07.141Z,15.00
2019-03-25T08:14:10.434Z,15.27
2019-03-25T08:17:13.718Z,16.13
2019-03-25T08:20:17.052Z,12.17
2019-03-25T08:23:20.348Z,18.03
2019-03-25T08:26:23.651Z,16.03
2019-03-25T08:29:26.928Z,12.97
2019-03-25T08:32:30.246Z,11.78
2019-03-25T08:35:33.540Z,14.03
2019-03-25T08:38:36.883Z,8.85
2019-03-25T08:41:40.129Z,8.15
2019-03-25T08:44:43.419Z,7.17
2019-03-25T08:47:46.711Z,7.70
2019-03-25T08:50:50.018Z,5.78
2019-03-25T08:53:53.308Z,9.33
2019-03-25T08:56:56.606Z,7.00
2019-03-25T08:59:59.905Z,7.25
2019-03-25T09:03:03.200Z,7.42
2019-03-25T09:06:06.562Z,11.00
2019-03-25T09:09:09.921Z,8.53
2019-03-25T09:12:13.216Z,11.90
2019-03-25T09:15:18.194Z,6.35
2019-03-25T09:18:21.490Z,5.12
2019-03-25T09:21:24.771Z,7.00
2019-03-25T09:24:28.046Z,7.10
2019-03-25T09:27:31.364Z,7.60
2019-03-25T09:30:56.099Z,12.65
2019-03-25T09:33:59.405Z,8.58
2019-03-25T09:37:02.704Z,13.98
2019-03-25T09:40:09.051Z,9.80
2019-03-25T09:43:12.340Z,9.80
2019-03-25T09:46:15.620Z,10.03
2019-03-25T09:49:18.933Z,8.43
2019-03-25T09:52:22.213Z,12.43
2019-03-25T09:55:25.909Z,7.45
2019-03-25T09:58:36.062Z,5.45
2019-03-25T10:01:34.201Z,11.35
2019-03-25T10:04:37.497Z,5.85
2019-03-25T10:07:40.905Z,6.97
2019-03-25T10:10:44.189Z,4.75
2019-03-25T10:13:47.595Z,7.35
2019-03-25T10:16:50.881Z,6.83
2019-03-25T10:19:54.199Z,4.22
2019-03-25T10:22:57.498Z,5.67
2019-03-25T10:26:00.787Z,5.30
2019-03-25T10:29:04.087Z,3.67
2019-03-25T10:32:07.448Z,8.48
2019-03-25T10:35:10.729Z,4.83
2019-03-25T10:38:19.483Z,6.62
2019-03-25T10:41:19.059Z,5.33
2019-03-25T10:44:22.362Z,6.50
2019-03-25T10:47:25.637Z,7.70
2019-03-25T10:50:28.929Z,5.72
2019-03-25T10:53:32.214Z,5.12
2019-03-25T10:56:35.496Z,6.20
2019-03-25T10:59:38.787Z,5.80
2019-03-25T11:02:42.064Z,3.58
2019-03-25T11:05:45.362Z,7.70
2019-03-25T11:08:48.658Z,6.20
2019-03-25T11:11:51.953Z,9.68
2019-03-25T11:14:55.249Z,5.65
2019-03-25T11:17:58.544Z,5.85
2019-03-25T11:21:01.833Z,4.83
2019-03-25T11:24:05.122Z,5.60
2019-03-25T11:27:08.407Z,12.63
2019-03-25T11:30:12.299Z,9.95
2019-03-25T11:33:15.582Z,6.20
2019-03-25T11:36:18.894Z,6.33
2019-03-25T11:39:22.192Z,5.92
2019-03-25T11:42:25.474Z,3.95
2019-03-25T11:45:28.786Z,9.28
2019-03-25T11:48:32.078Z,9.58
2019-03-25T11:51:35.379Z,6.40
2019-03-25T11:54:38.710Z,7.35
2019-03-25T11:57:41.994Z,8.95
2019-03-25T12:00:45.292Z,5.85
2019-03-25T12:03:48.588Z,12.78
2019-03-25T12:06:51.876Z,6.45
2019-03-25T12:09:55.163Z,7.83
2019-03-25T12:12:58.447Z,9.03
2019-03-25T12:16:01.742Z,6.97
2019-03-25T12:19:05.040Z,5.40
2019-03-25T12:22:08.366Z,14.87
2019-03-25T12:25:11.650Z,6.12
2019-03-25T12:28:14.971Z,9.25
2019-03-25T12:31:18.287Z,4.92
2019-03-25T12:34:21.683Z,8.75
2019-03-25T12:37:25.067Z,7.70
2019-03-25T12:40:28.360Z,11.80
2019-03-25T12:43:31.661Z,8.23
2019-03-25T12:46:34.986Z,7.03
2019-03-25T12:49:38.246Z,6.40
2019-03-25T12:52:41.568Z,5.67
2019-03-25T12:55:44.900Z,6.67
2019-03-25T12:58:48.189Z,7.33
2019-03-25T13:01:53.127Z,5.60
2019-03-25T13:04:56.502Z,4.80
2019-03-25T13:07:59.799Z,4.37
2019-03-25T13:11:03.088Z,4.28
2019-03-25T13:14:06.376Z,4.72
2019-03-25T13:17:09.672Z,5.67
2019-03-25T13:20:13.013Z,4.67
2019-03-25T13:23:16.311Z,3.83
2019-03-25T13:26:19.600Z,3.20
2019-03-25T13:29:22.898Z,4.37
2019-03-25T13:32:26.197Z,3.15
2019-03-25T13:35:29.499Z,4.78
2019-03-25T13:38:32.834Z,2.95
2019-03-25T13:41:36.129Z,3.05
2019-03-25T13:44:39.467Z,2.58
2019-03-25T13:47:42.774Z,4.80
2019-03-25T13:50:46.058Z,4.58
2019-03-25T13:53:49.368Z,2.65
2019-03-25T13:56:52.656Z,1.22
2019-03-25T14:00:03.142Z,3.77
2019-03-25T14:03:00.969Z,2.10
2019-03-25T14:06:04.486Z,3.50
2019-03-25T14:09:08.205Z,3.55
2019-03-25T14:12:11.480Z,2.60
2019-03-25T14:15:14.774Z,1.17
2019-03-25T14:18:18.083Z,2.15
2019-03-25T14:21:21.356Z,2.37
2019-03-25T14:24:24.662Z,2.80
2019-03-25T14:27:27.948Z,2.70
2019-03-25T14:30:31.266Z,6.00
2019-03-25T14:33:34.560Z,3.20
2019-03-25T14:36:37.873Z,3.45
2019-03-25T14:39:41.182Z,3.77
2019-03-25T14:42:44.468Z,3.50
2019-03-25T14:45:47.764Z,3.77
2019-03-25T14:48:51.067Z,4.22
2019-03-25T14:51:54.363Z,3.95
2019-03-25T14:54:57.684Z,2.47
2019-03-25T14:58:01.045Z,3.27
2019-03-25T15:01:04.332Z,4.53
2019-03-25T15:04:07.623Z,2.70
2019-03-25T15:07:10.921Z,2.25
2019-03-25T15:10:14.282Z,3.60
2019-03-25T15:13:17.592Z,4.50
2019-03-25T15:16:20.897Z,3.08
2019-03-25T15:19:24.210Z,2.80
2019-03-25T15:22:27.508Z,3.90
2019-03-25T15:25:30.797Z,2.40
2019-03-25T15:28:34.106Z,3.22
2019-03-25T15:31:37.393Z,4.62
2019-03-25T15:34:40.696Z,4.53
2019-03-25T15:37:44.025Z,3.67
2019-03-25T15:40:47.324Z,5.60
2019-03-25T15:43:50.635Z,1.95
2019-03-25T15:46:55.888Z,1.23
2019-03-25T15:49:58.947Z,0.90
2019-03-25T15:53:02.229Z,2.40
2019-03-25T15:56:05.545Z,3.10
2019-03-25T15:59:08.882Z,1.37
2019-03-25T16:02:12.169Z,2.63
2019-03-25T16:05:16.081Z,1.40
2019-03-25T16:08:19.411Z,3.60
2019-03-25T16:11:22.713Z,1.67
2019-03-25T16:14:26.000Z,1.63
2019-03-25T16:17:29.294Z,2.70
2019-03-25T16:20:32.620Z,2.90
2019-03-25T16:23:36.261Z,1.22
2019-03-25T16:26:39.551Z,4.53
2019-03-25T16:29:42.856Z,1.83
2019-03-25T16:32:46.182Z,1.77
2019-03-25T16:35:49.493Z,1.92
2019-03-25T16:38:52.812Z,2.53
2019-03-25T16:41:56.108Z,2.52
2019-03-25T16:44:59.403Z,3.50
2019-03-25T16:48:02.702Z,2.85
2019-03-25T16:51:06.018Z,3.72
2019-03-25T16:54:09.384Z,4.30
2019-03-25T16:57:12.668Z,4.40
2019-03-25T17:00:26.580Z,4.42
2019-03-25T17:03:21.031Z,2.22
2019-03-25T17:06:24.345Z,4.62
2019-03-25T17:09:27.614Z,2.25
2019-03-25T17:12:30.945Z,3.58
2019-03-25T17:15:34.286Z,5.03
2019-03-25T17:18:37.610Z,2.95
2019-03-25T17:21:40.937Z,2.25
2019-03-25T17:24:44.232Z,2.80
2019-03-25T17:27:47.631Z,5.80
2019-03-25T17:30:51.072Z,6.62
2019-03-25T17:33:54.355Z,4.97
2019-03-25T17:36:57.701Z,5.70
2019-03-25T17:40:01.028Z,5.55
2019-03-25T17:43:04.346Z,13.00
2019-03-25T17:46:07.655Z,5.28
2019-03-25T17:49:10.947Z,4.08
2019-03-25T17:52:14.263Z,3.25
2019-03-25T17:55:17.557Z,3.20
2019-03-25T17:58:20.888Z,3.17
2019-03-25T18:01:32.223Z,5.20
2019-03-25T18:04:30.966Z,3.15
2019-03-25T18:07:34.259Z,5.72
2019-03-25T18:10:37.559Z,4.30
2019-03-25T18:13:40.865Z,4.65
2019-03-25T18:16:44.234Z,4.58
2019-03-25T18:19:47.510Z,7.45
2019-03-25T18:22:50.805Z,5.95
2019-03-25T18:25:54.111Z,5.95
2019-03-25T18:28:57.685Z,10.82
2019-03-25T18:32:01.072Z,7.55
2019-03-25T18:35:05.632Z,8.73
2019-03-25T18:38:08.918Z,5.85
2019-03-25T18:41:12.267Z,7.58
2019-03-25T18:44:15.584Z,7.55
2019-03-25T18:47:18.874Z,7.92
2019-03-25T18:50:22.174Z,7.75
2019-03-25T18:53:25.536Z,8.13
2019-03-25T18:56:28.871Z,7.65
2019-03-25T18:59:32.181Z,8.27
2019-03-25T19:02:37.107Z,8.63
2019-03-25T19:05:40.655Z,7.65
2019-03-25T19:08:44.237Z,9.63
2019-03-25T19:11:47.549Z,13.28
2019-03-25T19:14:50.856Z,12.50
2019-03-25T19:17:54.431Z,9.03
2019-03-25T19:20:57.760Z,7.40
2019-03-25T19:24:01.024Z,8.40
2019-03-25T19:27:04.436Z,6.33
2019-03-25T19:30:09.624Z,5.30
2019-03-25T19:33:12.977Z,8.50
2019-03-25T19:36:16.361Z,7.77
2019-03-25T19:39:19.653Z,5.27
2019-03-25T19:42:22.985Z,5.40
2019-03-25T19:45:26.362Z,6.73
2019-03-25T19:48:29.922Z,5.33
2019-03-25T19:51:33.252Z,4.87
2019-03-25T19:54:36.619Z,5.77
2019-03-25T19:57:39.975Z,7.23
2019-03-25T20:00:43.521Z,8.77
2019-03-25T20:03:53.224Z,7.40
2019-03-25T20:06:57.132Z,38.07
2019-03-25T20:10:00.553Z,97.57
2019-03-25T20:13:04.046Z,46.03
2019-03-25T20:16:07.473Z,4.87
2019-03-25T20:19:10.845Z,7.73
2019-03-25T20:22:14.360Z,7.63
2019-03-25T20:25:17.640Z,6.50
2019-03-25T20:28:21.037Z,5.47
2019-03-25T20:31:24.400Z,6.13
2019-03-25T20:34:27.732Z,6.07
2019-03-25T20:37:31.102Z,4.70
2019-03-25T20:40:34.486Z,6.87
2019-03-25T20:43:37.780Z,9.03
2019-03-25T20:46:41.107Z,7.37
2019-03-25T20:49:44.378Z,7.27
2019-03-25T20:52:47.733Z,7.20
2019-03-25T20:55:51.031Z,8.90
2019-03-25T20:58:54.277Z,8.43
2019-03-25T21:01:57.612Z,9.53
2019-03-25T21:05:01.065Z,8.47
2019-03-25T21:08:04.387Z,8.87
2019-03-25T21:11:07.644Z,7.37
2019-03-25T21:14:10.998Z,6.03
2019-03-25T21:17:14.322Z,8.13
2019-03-25T21:20:17.615Z,8.80
2019-03-25T21:23:21.039Z,11.67
2019-03-25T21:26:24.395Z,8.10
2019-03-25T21:29:29.542Z,10.10
2019-03-25T21:32:32.905Z,6.63
2019-03-25T21:35:36.297Z,8.37
2019-03-25T21:38:39.679Z,7.00
2019-03-25T21:41:43.039Z,8.93
2019-03-25T21:44:46.302Z,4.97
2019-03-25T21:47:49.611Z,8.80
2019-03-25T21:50:52.868Z,13.47
2019-03-25T21:53:56.275Z,11.37
2019-03-25T21:56:59.588Z,7.73
2019-03-25T22:00:03.666Z,5.03
2019-03-25T22:03:12.169Z,9.10
2019-03-25T22:06:11.994Z,8.30
2019-03-25T22:09:15.321Z,7.08
2019-03-25T22:12:18.618Z,7.70
2019-03-25T22:15:21.992Z,5.40
2019-03-25T22:18:25.289Z,5.83
2019-03-25T22:21:29.464Z,6.00
2019-03-25T22:24:32.926Z,5.90
2019-03-25T22:27:36.281Z,6.47
2019-03-25T22:30:39.575Z,7.00
2019-03-25T22:33:42.860Z,7.43
2019-03-25T22:36:46.187Z,7.20
2019-03-25T22:39:49.500Z,8.73
2019-03-25T22:42:52.830Z,7.83
2019-03-25T22:45:56.170Z,7.10
2019-03-25T22:48:59.494Z,8.73
2019-03-25T22:52:02.775Z,6.80
2019-03-25T22:55:06.807Z,9.37
2019-03-25T22:58:10.100Z,8.25
2019-03-25T23:01:13.580Z,10.10
2019-03-25T23:04:16.896Z,59.37
2019-03-25T23:07:20.194Z,40.10
2019-03-25T23:10:23.509Z,17.03
2019-03-25T23:13:26.869Z,22.70
2019-03-25T23:16:30.170Z,8.17
2019-03-25T23:19:33.483Z,8.17
2019-03-25T23:22:36.780Z,11.20
2019-03-25T23:25:40.100Z,9.30
2019-03-25T23:28:43.412Z,9.75
2019-03-25T23:31:46.713Z,9.10
2019-03-25T23:34:50.035Z,10.70
2019-03-25T23:37:53.335Z,10.33
2019-03-25T23:40:56.613Z,9.33
2019-03-25T23:43:59.937Z,13.10
2019-03-25T23:47:03.220Z,11.47
2019-03-25T23:50:06.594Z,9.37
2019-03-25T23:53:09.913Z,9.50
2019-03-25T23:56:13.234Z,11.63
2019-03-25T23:59:16.549Z,9.60
